Time;durP1;ratioP1;P1;durP2;ratioP2;P2;SDS_P1;SDS_P2;PMS_P1;PMS_P2;Temp;Humidity;BMP_temperature;BMP_pressure;BME280_temperature;BME280_humidity;BME280_pressure;Samples;Min_cycle;Max_cycle;Signal;HPM_P1;HPM_P2
2023/01/05 00:01:13;;;;;;;6.72;1.15;;;;;;;;;;5982196;23;20351;-85
2023/01/05 00:03:39;;;;;;;3.90;0.93;;;;;;;;;;5983167;23;20039;-86
2023/01/05 00:06:10;;;;;;;4.00;1.15;;;;;;;;;;5981416;23;20360;-85
2023/01/05 00:08:36;;;;;;;3.85;1.20;;;;;;;;;;5982470;23;20094;-85
2023/01/05 00:24:45;;;;;;;5.15;1.20;;;;;;;;;;6011472;23;20086;-85
2023/01/05 00:27:10;;;;;;;5.43;0.95;;;;;;;;;;6030134;23;20050;-85
2023/01/05 00:29:35;;;;;;;7.70;1.30;;;;;;;;;;5984594;23;20400;-85
2023/01/05 00:32:01;;;;;;;6.18;1.02;;;;;;;;;;6029718;23;20038;-85
2023/01/05 00:34:26;;;;;;;6.72;1.15;;;;;;;;;;5983991;23;20019;-86
2023/01/05 00:36:52;;;;;;;3.28;0.88;;;;;;;;;;6030073;23;20019;-85
2023/01/05 00:39:17;;;;;;;7.55;1.70;;;;;;;;;;5984447;23;20015;-85
2023/01/05 00:41:42;;;;;;;5.35;1.10;;;;;;;;;;6006014;23;20016;-85
2023/01/05 00:44:08;;;;;;;6.72;1.15;;;;;;;;;;6030558;23;20932;-86
2023/01/05 00:46:33;;;;;;;4.93;0.80;;;;;;;;;;5982483;23;20035;-85
2023/01/05 00:48:59;;;;;;;4.43;1.35;;;;;;;;;;6030509;23;20038;-85
2023/01/05 00:51:24;;;;;;;3.92;1.10;;;;;;;;;;5982913;23;20114;-84
2023/01/05 00:53:49;;;;;;;8.48;1.48;;;;;;;;;;6007286;23;20015;-84
2023/01/05 00:56:15;;;;;;;5.53;1.00;;;;;;;;;;6006848;23;20404;-85
2023/01/05 00:58:40;;;;;;;8.55;1.27;;;;;;;;;;6007118;23;20079;-85
2023/01/05 01:01:12;;;;;;;5.35;0.90;;;;;;;;;;5982362;23;20403;-85
2023/01/05 01:03:38;;;;;;;6.20;1.00;;;;;;;;;;6006973;23;20017;-85
2023/01/05 01:06:03;;;;;;;5.72;1.25;;;;;;;;;;5982736;23;20519;-84
2023/01/05 01:08:29;;;;;;;5.50;1.20;;;;;;;;;;5982693;23;20483;-84
2023/01/05 01:10:54;;;;;;;5.28;1.20;;;;;;;;;;6006178;23;20355;-86
2023/01/05 01:13:19;;;;;;;9.10;1.60;;;;;;;;;;6030640;23;20015;-85
2023/01/05 01:15:45;;;;;;;5.55;1.83;;;;;;;;;;5983413;23;20058;-86
2023/01/05 01:18:10;;;;;;;7.57;1.50;;;;;;;;;;6030644;23;20022;-86
2023/01/05 01:20:36;;;;;;;6.20;1.17;;;;;;;;;;6029378;23;20012;-87
2023/01/05 01:23:03;;;;;;;6.22;1.35;;;;;;;;;;6030658;23;20024;-87
2023/01/05 01:25:28;;;;;;;4.65;1.13;;;;;;;;;;5982656;23;20011;-86
2023/01/05 01:27:54;;;;;;;3.78;0.90;;;;;;;;;;6030558;23;20023;-85
2023/01/05 01:30:19;;;;;;;4.93;1.05;;;;;;;;;;5981919;23;20317;-86
2023/01/05 01:32:44;;;;;;;4.70;1.27;;;;;;;;;;5983858;23;20038;-86
2023/01/05 01:35:10;;;;;;;7.72;1.15;;;;;;;;;;6029859;23;20023;-85
2023/01/05 01:37:36;;;;;;;5.80;1.17;;;;;;;;;;6006308;23;20019;-85
2023/01/05 01:40:01;;;;;;;4.95;1.13;;;;;;;;;;6006631;23;20484;-86
2023/01/05 01:42:26;;;;;;;2.70;0.93;;;;;;;;;;6029333;23;20094;-86
2023/01/05 01:44:56;;;;;;;5.43;1.00;;;;;;;;;;6030799;23;20480;-86
2023/01/05 01:47:27;;;;;;;6.47;1.25;;;;;;;;;;6006220;23;20050;-85
2023/01/05 01:49:53;;;;;;;3.70;0.90;;;;;;;;;;5969912;23;20027;-84
2023/01/05 01:52:20;;;;;;;9.13;1.35;;;;;;;;;;6029253;23;20141;-86
2023/01/05 01:54:46;;;;;;;6.22;0.90;;;;;;;;;;6030648;23;20082;-87
2023/01/05 01:57:13;;;;;;;4.40;1.15;;;;;;;;;;5981552;23;20015;-86
2023/01/05 01:59:38;;;;;;;5.15;0.95;;;;;;;;;;6006212;23;20015;-88
2023/01/05 02:02:05;;;;;;;4.38;1.35;;;;;;;;;;5969031;23;20400;-84
2023/01/05 02:04:31;;;;;;;5.50;1.23;;;;;;;;;;6026457;23;20487;-85
2023/01/05 02:06:58;;;;;;;4.53;0.90;;;;;;;;;;6029170;23;20019;-86
2023/01/05 02:09:23;;;;;;;4.05;1.20;;;;;;;;;;5990186;23;20022;-87
2023/01/05 02:12:07;;;;;;;4.28;1.27;;;;;;;;;;5970634;23;20019;-85
2023/01/05 02:14:38;;;;;;;5.15;1.58;;;;;;;;;;6006189;23;20015;-86
2023/01/05 02:17:22;;;;;;;3.75;0.90;;;;;;;;;;6029923;23;20076;-85
2023/01/05 02:20:02;;;;;;;4.38;0.82;;;;;;;;;;5995030;23;20015;-87
2023/01/05 02:23:02;;;;;;;4.47;1.10;;;;;;;;;;6005202;23;20099;-86
2023/01/05 02:25:30;;;;;;;2.88;0.90;;;;;;;;;;6005163;23;20027;-88
2023/01/05 02:28:17;;;;;;;4.35;1.20;;;;;;;;;;6052845;23;20240;-87
2023/01/05 02:30:53;;;;;;;5.15;1.10;;;;;;;;;;6051989;23;20023;-85
2023/01/05 02:33:30;;;;;;;4.25;1.00;;;;;;;;;;6006276;23;20106;-86
2023/01/05 02:36:05;;;;;;;7.00;1.00;;;;;;;;;;6004660;23;20871;-86
2023/01/05 02:38:37;;;;;;;4.68;1.08;;;;;;;;;;6006073;23;20025;-84
2023/01/05 02:41:10;;;;;;;3.97;1.17;;;;;;;;;;6004529;23;20075;-86
2023/01/05 02:43:35;;;;;;;3.65;1.00;;;;;;;;;;5982746;23;20019;-87
2023/01/05 02:46:00;;;;;;;4.78;0.93;;;;;;;;;;5982125;23;20344;-87
2023/01/05 02:48:26;;;;;;;4.78;0.98;;;;;;;;;;5982737;23;20022;-87
2023/01/05 02:51:07;;;;;;;4.43;1.25;;;;;;;;;;5981769;23;20031;-88
2023/01/05 02:53:37;;;;;;;4.45;0.85;;;;;;;;;;5971186;23;20014;-86
2023/01/05 02:56:06;;;;;;;3.58;1.05;;;;;;;;;;6001532;23;20481;-86
2023/01/05 02:58:53;;;;;;;4.18;0.77;;;;;;;;;;6029554;23;20078;-87
2023/01/05 03:01:29;;;;;;;3.83;0.80;;;;;;;;;;5981746;23;20523;-84
2023/01/05 03:03:59;;;;;;;4.47;0.90;;;;;;;;;;6028656;23;20467;-86
2023/01/05 03:06:35;;;;;;;3.97;0.88;;;;;;;;;;5981504;23;20450;-86
2023/01/05 03:09:02;;;;;;;4.38;1.38;;;;;;;;;;6005933;23;20047;-87
2023/01/05 03:14:46;;;;;;;5.38;0.85;;;;;;;;;;6031882;23;20030;-88
2023/01/05 03:17:33;;;;;;;4.10;0.90;;;;;;;;;;5980662;23;20053;-84
2023/01/05 03:20:00;;;;;;;4.30;0.85;;;;;;;;;;5982316;23;20392;-87
2023/01/05 03:36:55;;;;;;;4.82;0.95;;;;;;;;;;6008800;23;20048;-87
2023/01/05 03:39:25;;;;;;;3.72;0.85;;;;;;;;;;6052697;23;20012;-87
2023/01/05 03:41:51;;;;;;;5.32;0.80;;;;;;;;;;6005410;23;20459;-86
2023/01/05 03:44:16;;;;;;;5.65;0.80;;;;;;;;;;6029628;23;20019;-85
2023/01/05 03:46:42;;;;;;;2.35;0.75;;;;;;;;;;6010318;23;20028;-87
2023/01/05 03:49:07;;;;;;;2.22;0.60;;;;;;;;;;5982584;23;20031;-89
2023/01/05 03:51:32;;;;;;;3.30;0.73;;;;;;;;;;5983072;23;20027;-86
2023/01/05 03:53:58;;;;;;;3.78;1.00;;;;;;;;;;6017726;23;20027;-86
2023/01/05 03:56:23;;;;;;;4.47;1.00;;;;;;;;;;5995674;23;20373;-87
2023/01/05 03:58:49;;;;;;;4.70;0.70;;;;;;;;;;6008271;23;20027;-87
2023/01/05 04:01:14;;;;;;;3.58;0.80;;;;;;;;;;6030114;23;20046;-87
2023/01/05 04:03:40;;;;;;;3.25;0.73;;;;;;;;;;6031277;23;20299;-90
2023/01/05 04:06:06;;;;;;;4.75;0.80;;;;;;;;;;5982635;23;20023;-87
2023/01/05 04:08:31;;;;;;;3.40;0.80;;;;;;;;;;6018882;23;20019;-89
2023/01/05 04:10:56;;;;;;;3.40;0.57;;;;;;;;;;6004761;23;20023;-88
2023/01/05 04:13:22;;;;;;;5.18;0.90;;;;;;;;;;5983458;23;20011;-87
2023/01/05 04:15:47;;;;;;;1.73;0.60;;;;;;;;;;6030924;23;20049;-85
2023/01/05 04:18:13;;;;;;;3.67;0.70;;;;;;;;;;5983743;23;20422;-86
2023/01/05 04:20:38;;;;;;;3.42;0.95;;;;;;;;;;5982822;23;20023;-87
2023/01/05 04:23:04;;;;;;;3.63;0.80;;;;;;;;;;6030656;23;20027;-89
2023/01/05 04:25:30;;;;;;;3.38;1.00;;;;;;;;;;5994659;23;20029;-87
2023/01/05 04:27:57;;;;;;;2.83;0.73;;;;;;;;;;6002100;23;20023;-88
2023/01/05 04:30:26;;;;;;;4.82;0.85;;;;;;;;;;5999882;23;20023;-90
2023/01/05 04:32:52;;;;;;;3.10;0.70;;;;;;;;;;6026712;23;20367;-89
2023/01/05 04:35:21;;;;;;;3.13;0.77;;;;;;;;;;6015862;23;20019;-90
2023/01/05 04:37:56;;;;;;;2.33;0.60;;;;;;;;;;6008204;23;20019;-90
2023/01/05 04:40:21;;;;;;;3.95;0.88;;;;;;;;;;5966002;23;20042;-87
2023/01/05 04:42:47;;;;;;;3.42;0.82;;;;;;;;;;5984163;23;20428;-88
2023/01/05 04:45:12;;;;;;;4.35;0.85;;;;;;;;;;5983237;23;20015;-86
2023/01/05 04:47:41;;;;;;;4.20;0.82;;;;;;;;;;6006081;23;20066;-91
2023/01/05 04:50:07;;;;;;;2.67;0.88;;;;;;;;;;5982063;23;20027;-88
2023/01/05 04:52:32;;;;;;;3.03;0.77;;;;;;;;;;6005698;23;20023;-85
2023/01/05 04:54:58;;;;;;;3.35;1.00;;;;;;;;;;5983417;23;20026;-86
2023/01/05 04:57:23;;;;;;;3.17;0.85;;;;;;;;;;6005986;23;20023;-86
2023/01/05 04:59:48;;;;;;;6.93;1.60;;;;;;;;;;5983923;23;20266;-85
2023/01/05 05:02:14;;;;;;;4.63;1.13;;;;;;;;;;5982726;23;20047;-85
2023/01/05 05:04:39;;;;;;;6.63;1.20;;;;;;;;;;5968224;23;20935;-86
2023/01/05 05:07:05;;;;;;;2.78;1.10;;;;;;;;;;6025574;23;20016;-84
2023/01/05 05:09:30;;;;;;;4.32;1.20;;;;;;;;;;5967348;23;20026;-85
2023/01/05 05:11:56;;;;;;;4.63;1.08;;;;;;;;;;5999391;23;20020;-84
2023/01/05 05:14:21;;;;;;;3.95;1.05;;;;;;;;;;5979402;23;20016;-84
2023/01/05 05:16:46;;;;;;;4.90;1.30;;;;;;;;;;6002746;23;20419;-84
2023/01/05 05:19:12;;;;;;;5.05;1.00;;;;;;;;;;5979073;23;20042;-84
2023/01/05 05:21:46;;;;;;;6.35;1.40;;;;;;;;;;6000699;23;20053;-84
2023/01/05 05:24:14;;;;;;;7.50;1.20;;;;;;;;;;5978349;23;20027;-84
2023/01/05 05:26:39;;;;;;;5.53;1.40;;;;;;;;;;5953805;23;20047;-84
2023/01/05 05:29:05;;;;;;;5.10;1.23;;;;;;;;;;5954551;23;20098;-84
2023/01/05 05:31:30;;;;;;;7.93;1.55;;;;;;;;;;6000339;23;20349;-85
2023/01/05 05:33:55;;;;;;;4.43;1.02;;;;;;;;;;5978100;23;20356;-83
2023/01/05 05:36:21;;;;;;;4.45;1.17;;;;;;;;;;5954019;23;20016;-84
2023/01/05 05:38:46;;;;;;;6.80;1.17;;;;;;;;;;5979494;23;20050;-84
2023/01/05 05:41:12;;;;;;;7.57;1.30;;;;;;;;;;5977559;23;20020;-83
2023/01/05 05:43:37;;;;;;;4.72;1.00;;;;;;;;;;5954854;23;20465;-84
2023/01/05 05:46:02;;;;;;;5.25;0.80;;;;;;;;;;5977467;23;20024;-84
2023/01/05 05:48:28;;;;;;;4.30;1.10;;;;;;;;;;5978433;23;20031;-84
2023/01/05 05:51:02;;;;;;;4.90;0.90;;;;;;;;;;5953495;23;20018;-86
2023/01/05 05:53:30;;;;;;;3.83;0.70;;;;;;;;;;6002125;23;20491;-86
2023/01/05 05:55:56;;;;;;;3.65;0.90;;;;;;;;;;5977178;23;20051;-85
2023/01/05 05:58:24;;;;;;;3.63;1.10;;;;;;;;;;5977887;23;20043;-86
2023/01/05 06:00:50;;;;;;;2.97;0.82;;;;;;;;;;5953371;23;20467;-85
2023/01/05 06:03:15;;;;;;;4.80;1.35;;;;;;;;;;5955392;23;20023;-85
2023/01/05 06:05:40;;;;;;;5.43;1.13;;;;;;;;;;6028463;23;20348;-84
2023/01/05 06:08:06;;;;;;;2.25;0.93;;;;;;;;;;5982690;23;20535;-85
2023/01/05 06:10:31;;;;;;;2.83;0.73;;;;;;;;;;5982059;23;20507;-84
2023/01/05 06:12:57;;;;;;;4.85;1.25;;;;;;;;;;6006348;23;20023;-83
2023/01/05 06:15:22;;;;;;;2.50;1.05;;;;;;;;;;5981726;23;20015;-84
2023/01/05 06:17:48;;;;;;;2.90;1.00;;;;;;;;;;5972734;23;20019;-85
2023/01/05 06:20:15;;;;;;;4.57;0.95;;;;;;;;;;5982334;23;20400;-84
2023/01/05 06:22:41;;;;;;;6.88;0.90;;;;;;;;;;6002127;23;20355;-85
2023/01/05 06:25:07;;;;;;;3.15;0.85;;;;;;;;;;5996699;23;20094;-84
2023/01/05 06:27:33;;;;;;;3.60;0.75;;;;;;;;;;6029020;23;20045;-83
2023/01/05 06:29:58;;;;;;;3.67;1.27;;;;;;;;;;5982465;23;20042;-84
2023/01/05 06:32:23;;;;;;;1.73;0.60;;;;;;;;;;5982019;23;20086;-84
2023/01/05 06:34:49;;;;;;;2.38;0.52;;;;;;;;;;5983280;23;20019;-84
2023/01/05 06:37:14;;;;;;;2.22;0.80;;;;;;;;;;6029630;23;20442;-84
2023/01/05 06:39:40;;;;;;;3.75;0.50;;;;;;;;;;6005936;23;20015;-86
2023/01/05 06:42:05;;;;;;;2.45;0.45;;;;;;;;;;5981907;23;20093;-85
2023/01/05 06:44:30;;;;;;;1.33;0.55;;;;;;;;;;6030448;23;20356;-86
2023/01/05 06:46:56;;;;;;;2.97;0.75;;;;;;;;;;6005240;23;20019;-87
2023/01/05 06:49:21;;;;;;;2.03;0.57;;;;;;;;;;6029619;23;20015;-87
2023/01/05 06:51:47;;;;;;;1.02;0.40;;;;;;;;;;6029623;23;20007;-86
2023/01/05 06:54:12;;;;;;;1.95;0.57;;;;;;;;;;5983210;23;20018;-86
2023/01/05 06:56:38;;;;;;;1.58;0.50;;;;;;;;;;5982180;23;20015;-85
2023/01/05 06:59:03;;;;;;;3.30;0.60;;;;;;;;;;6006709;23;20011;-86
2023/01/05 07:01:29;;;;;;;2.08;0.52;;;;;;;;;;5981436;23;20031;-86
2023/01/05 07:03:54;;;;;;;4.95;0.50;;;;;;;;;;5982805;23;20106;-86
2023/01/05 07:06:19;;;;;;;1.38;0.40;;;;;;;;;;5981776;23;20090;-85
2023/01/05 07:08:45;;;;;;;2.17;0.60;;;;;;;;;;6007239;23;20011;-86
2023/01/05 07:11:10;;;;;;;3.13;0.60;;;;;;;;;;5981156;23;20015;-86
2023/01/05 07:13:35;;;;;;;2.50;0.60;;;;;;;;;;6029936;23;20038;-86
2023/01/05 07:16:01;;;;;;;3.13;0.70;;;;;;;;;;6028498;23;20026;-85
2023/01/05 07:18:26;;;;;;;2.95;0.77;;;;;;;;;;6006441;23;20019;-87
2023/01/05 07:20:52;;;;;;;1.95;0.57;;;;;;;;;;6028599;23;20015;-86
2023/01/05 07:23:17;;;;;;;1.75;0.50;;;;;;;;;;6006818;23;20019;-87
2023/01/05 07:25:42;;;;;;;0.98;0.38;;;;;;;;;;6029006;23;20019;-87
2023/01/05 07:28:08;;;;;;;2.17;0.50;;;;;;;;;;6029611;23;20031;-87
2023/01/05 07:30:33;;;;;;;1.73;0.43;;;;;;;;;;6004218;23;21060;-86
2023/01/05 07:32:59;;;;;;;2.22;0.40;;;;;;;;;;6005640;23;20404;-88
2023/01/05 07:35:25;;;;;;;0.95;0.40;;;;;;;;;;5997948;23;20014;-88
2023/01/05 07:37:51;;;;;;;1.00;0.40;;;;;;;;;;5999562;23;20491;-86
2023/01/05 07:40:16;;;;;;;1.20;0.40;;;;;;;;;;5982685;23;20016;-86
2023/01/05 07:42:41;;;;;;;0.77;0.20;;;;;;;;;;6029698;23;20015;-86
2023/01/05 07:45:07;;;;;;;1.30;0.35;;;;;;;;;;6029204;23;20030;-86
2023/01/05 07:47:33;;;;;;;0.50;0.20;;;;;;;;;;5981972;23;20015;-86
2023/01/05 07:49:58;;;;;;;1.85;0.35;;;;;;;;;;5969602;23;20030;-85
2023/01/05 07:52:23;;;;;;;0.85;0.30;;;;;;;;;;6026641;23;20026;-87
2023/01/05 07:54:49;;;;;;;0.45;0.30;;;;;;;;;;6030439;23;20106;-86
2023/01/05 07:57:14;;;;;;;2.17;0.50;;;;;;;;;;6030119;23;20086;-85
2023/01/05 07:59:39;;;;;;;1.80;0.50;;;;;;;;;;5982933;23;20029;-85
2023/01/05 08:02:05;;;;;;;0.50;0.20;;;;;;;;;;5982065;23;20067;-85
2023/01/05 08:04:30;;;;;;;1.13;0.30;;;;;;;;;;6029224;23;20030;-84
2023/01/05 08:06:56;;;;;;;0.73;0.20;;;;;;;;;;6029067;23;20535;-85
2023/01/05 08:12:05;;;;;;;1.25;0.30;;;;;;;;;;6009153;23;20098;-85
2023/01/05 08:14:31;;;;;;;1.23;0.20;;;;;;;;;;6005597;23;20015;-85
2023/01/05 08:16:57;;;;;;;1.80;0.52;;;;;;;;;;5981669;23;20056;-85
2023/01/05 08:19:23;;;;;;;1.25;0.40;;;;;;;;;;5983039;23;20020;-86
2023/01/05 08:21:48;;;;;;;1.85;0.30;;;;;;;;;;5982213;23;20012;-86
2023/01/05 08:24:14;;;;;;;0.75;0.30;;;;;;;;;;6029476;23;20011;-84
2023/01/05 08:26:39;;;;;;;1.58;0.47;;;;;;;;;;5981427;23;20144;-85
2023/01/05 08:29:04;;;;;;;1.13;0.50;;;;;;;;;;5982735;23;20032;-85
2023/01/05 08:31:36;;;;;;;0.40;0.20;;;;;;;;;;6005271;23;20027;-87
2023/01/05 08:34:02;;;;;;;0.57;0.20;;;;;;;;;;5985883;23;20038;-86
2023/01/05 08:36:30;;;;;;;1.42;0.30;;;;;;;;;;5982768;23;20022;-86
2023/01/05 08:38:55;;;;;;;0.10;0.10;;;;;;;;;;6031400;23;20026;-87
2023/01/05 08:41:27;;;;;;;0.82;0.38;;;;;;;;;;5983297;23;20015;-85
2023/01/05 08:43:54;;;;;;;0.73;0.25;;;;;;;;;;6031981;23;20385;-86
2023/01/05 08:46:21;;;;;;;1.42;0.30;;;;;;;;;;5984061;23;20015;-85
2023/01/05 08:48:48;;;;;;;0.75;0.20;;;;;;;;;;5984770;23;20021;-85
2023/01/05 08:51:14;;;;;;;0.77;0.20;;;;;;;;;;6029909;23;20384;-84
2023/01/05 08:53:39;;;;;;;0.60;0.22;;;;;;;;;;5984483;23;20067;-86
2023/01/05 08:56:05;;;;;;;0.73;0.22;;;;;;;;;;6030430;23;20486;-85
2023/01/05 08:58:30;;;;;;;2.20;0.40;;;;;;;;;;5984166;23;20015;-85
2023/01/05 09:00:56;;;;;;;1.40;0.38;;;;;;;;;;6029568;23;20542;-85
2023/01/05 09:03:21;;;;;;;0.55;0.20;;;;;;;;;;5983295;23;20026;-86
2023/01/05 09:05:46;;;;;;;1.77;0.47;;;;;;;;;;5984016;23;20023;-85
2023/01/05 09:08:12;;;;;;;1.05;0.40;;;;;;;;;;5983993;23;20019;-86
2023/01/05 09:10:37;;;;;;;2.20;0.40;;;;;;;;;;6029654;23;20739;-85
2023/01/05 09:13:03;;;;;;;0.73;0.22;;;;;;;;;;5984275;23;20094;-85
2023/01/05 09:15:28;;;;;;;1.63;0.40;;;;;;;;;;6029996;23;20467;-85
2023/01/05 09:17:53;;;;;;;0.68;0.22;;;;;;;;;;5983789;23;20019;-86
2023/01/05 09:20:19;;;;;;;1.52;0.38;;;;;;;;;;6030299;23;20859;-85
2023/01/05 09:22:44;;;;;;;1.48;0.40;;;;;;;;;;5983261;23;20088;-85
2023/01/05 09:25:09;;;;;;;0.93;0.47;;;;;;;;;;6030076;23;20344;-84
2023/01/05 09:27:35;;;;;;;1.45;0.50;;;;;;;;;;6006605;23;20716;-86
2023/01/05 09:30:02;;;;;;;1.45;0.55;;;;;;;;;;6007301;23;20027;-85
2023/01/05 09:32:27;;;;;;;2.38;0.40;;;;;;;;;;5983349;23;20706;-84
2023/01/05 09:34:53;;;;;;;2.10;0.30;;;;;;;;;;6007725;23;20019;-86
2023/01/05 09:37:18;;;;;;;1.83;0.30;;;;;;;;;;6030914;23;20397;-86
2023/01/05 09:39:43;;;;;;;1.65;0.38;;;;;;;;;;6030673;23;20131;-86
2023/01/05 09:42:16;;;;;;;2.13;0.52;;;;;;;;;;5982903;23;21600;-86
2023/01/05 09:44:45;;;;;;;3.05;0.60;;;;;;;;;;6030175;23;20015;-85
2023/01/05 09:47:19;;;;;;;1.40;0.40;;;;;;;;;;6006258;23;20015;-85
2023/01/05 09:49:46;;;;;;;2.85;0.40;;;;;;;;;;6007336;23;20035;-86
2023/01/05 09:52:12;;;;;;;3.50;0.55;;;;;;;;;;6006164;23;20019;-87
2023/01/05 09:54:38;;;;;;;3.25;0.70;;;;;;;;;;5983390;23;20027;-86
2023/01/05 09:57:05;;;;;;;1.92;0.40;;;;;;;;;;6005495;23;20038;-85
2023/01/05 09:59:33;;;;;;;1.17;0.30;;;;;;;;;;6007187;23;20015;-85
2023/01/05 10:02:04;;;;;;;1.25;0.50;;;;;;;;;;5982742;23;20019;-85
2023/01/05 10:04:31;;;;;;;2.05;0.50;;;;;;;;;;5982176;23;20401;-85
2023/01/05 10:07:09;;;;;;;2.42;0.63;;;;;;;;;;6005067;23;20322;-88
2023/01/05 10:09:38;;;;;;;2.65;0.50;;;;;;;;;;6005986;23;20023;-85
2023/01/05 10:15:11;;;;;;;1.75;0.50;;;;;;;;;;6009670;23;20034;-85
2023/01/05 10:17:38;;;;;;;2.78;0.65;;;;;;;;;;6005557;23;20717;-86
2023/01/05 10:20:18;;;;;;;4.05;1.10;;;;;;;;;;5982842;23;20051;-86
2023/01/05 10:22:49;;;;;;;1.88;0.57;;;;;;;;;;6018146;23;20070;-87
2023/01/05 10:25:26;;;;;;;3.33;0.60;;;;;;;;;;6053602;23;20023;-86
2023/01/05 10:27:58;;;;;;;2.35;0.65;;;;;;;;;;5982406;23;20023;-85
2023/01/05 10:30:42;;;;;;;3.15;0.50;;;;;;;;;;6005264;23;20027;-85
2023/01/05 10:33:25;;;;;;;1.17;0.40;;;;;;;;;;6006242;23;20051;-85
2023/01/05 10:36:10;;;;;;;2.60;0.47;;;;;;;;;;6005073;23;20030;-86
2023/01/05 10:39:11;;;;;;;8.00;0.90;;;;;;;;;;6030343;23;20478;-84
2023/01/05 10:41:55;;;;;;;3.15;0.80;;;;;;;;;;6030306;23;20355;-85
2023/01/05 10:45:02;;;;;;;3.50;0.52;;;;;;;;;;6006550;23;20106;-86
2023/01/05 10:47:29;;;;;;;2.25;0.55;;;;;;;;;;5915591;24;20469;-85
2023/01/05 10:49:54;;;;;;;1.77;0.53;;;;;;;;;;5991388;23;20380;-85
2023/01/05 10:52:20;;;;;;;1.10;0.43;;;;;;;;;;6005828;23;20023;-87
2023/01/05 10:54:58;;;;;;;2.25;0.50;;;;;;;;;;6006922;23;20019;-86
2023/01/05 10:57:29;;;;;;;1.20;0.50;;;;;;;;;;6029315;23;20093;-86
2023/01/05 11:00:00;;;;;;;2.88;0.40;;;;;;;;;;6005843;23;20053;-84
2023/01/05 11:02:29;;;;;;;2.85;0.50;;;;;;;;;;5981911;23;20019;-84
2023/01/05 11:05:03;;;;;;;1.95;0.45;;;;;;;;;;5982486;23;20058;-85
2023/01/05 11:07:28;;;;;;;2.50;0.50;;;;;;;;;;5982078;23;20015;-86
2023/01/05 11:09:54;;;;;;;2.72;0.68;;;;;;;;;;5982947;23;20027;-85
2023/01/05 11:12:21;;;;;;;0.90;0.30;;;;;;;;;;5982672;23;20011;-86
2023/01/05 11:14:50;;;;;;;1.33;0.32;;;;;;;;;;5983145;23;20507;-86
2023/01/05 11:17:20;;;;;;;2.17;0.60;;;;;;;;;;6005587;23;20026;-86
2023/01/05 11:19:48;;;;;;;2.83;0.57;;;;;;;;;;5983102;23;20019;-86
2023/01/05 11:22:27;;;;;;;1.88;0.40;;;;;;;;;;6028934;23;20019;-85
2023/01/05 11:24:53;;;;;;;2.75;0.60;;;;;;;;;;5982610;23;20352;-85
2023/01/05 11:27:18;;;;;;;1.10;0.40;;;;;;;;;;5982566;23;20020;-84
2023/01/05 11:29:44;;;;;;;3.50;0.93;;;;;;;;;;6006297;23;20026;-84
2023/01/05 11:32:11;;;;;;;2.83;0.50;;;;;;;;;;5957689;23;20182;-88
2023/01/05 11:34:44;;;;;;;1.20;0.40;;;;;;;;;;5983408;23;20044;-84
2023/01/05 11:37:22;;;;;;;3.55;0.60;;;;;;;;;;6028590;23;20224;-84
2023/01/05 11:39:51;;;;;;;1.55;0.65;;;;;;;;;;5983314;23;20013;-85
2023/01/05 11:42:22;;;;;;;2.47;0.50;;;;;;;;;;5981818;23;20376;-85
2023/01/05 11:44:51;;;;;;;2.80;0.38;;;;;;;;;;6005805;23;20019;-85
2023/01/05 11:47:31;;;;;;;2.55;0.68;;;;;;;;;;6029201;23;20402;-85
2023/01/05 11:50:08;;;;;;;1.75;0.50;;;;;;;;;;5982965;23;20106;-86
2023/01/05 11:52:44;;;;;;;1.25;0.40;;;;;;;;;;6005223;23;20031;-85
2023/01/05 11:55:19;;;;;;;4.43;0.60;;;;;;;;;;5981832;23;20027;-86
2023/01/05 11:57:48;;;;;;;3.47;0.60;;;;;;;;;;6005384;23;20015;-86
2023/01/05 12:00:27;;;;;;;2.67;0.45;;;;;;;;;;6005546;23;20095;-86
2023/01/05 12:03:11;;;;;;;5.85;0.68;;;;;;;;;;6028886;23;20329;-84
2023/01/05 12:05:45;;;;;;;2.85;0.43;;;;;;;;;;6030161;23;20023;-87
2023/01/05 12:08:17;;;;;;;3.25;0.40;;;;;;;;;;6007234;23;20031;-86
2023/01/05 12:11:14;;;;;;;3.42;0.60;;;;;;;;;;5983458;23;20078;-86
2023/01/05 12:13:45;;;;;;;1.55;0.30;;;;;;;;;;5991379;23;20034;-86
2023/01/05 12:16:44;;;;;;;3.80;0.68;;;;;;;;;;6005491;23;20046;-85
2023/01/05 12:19:46;;;;;;;1.58;0.30;;;;;;;;;;6030075;23;20015;-87
2023/01/05 12:22:12;;;;;;;2.85;0.52;;;;;;;;;;6003868;23;20519;-86
2023/01/05 12:24:43;;;;;;;2.33;0.45;;;;;;;;;;6032693;23;20055;-85
2023/01/05 12:27:14;;;;;;;5.43;0.68;;;;;;;;;;6053272;23;20058;-87
2023/01/05 12:30:13;;;;;;;1.60;0.40;;;;;;;;;;6054868;23;21348;-85
2023/01/05 12:32:55;;;;;;;4.20;0.70;;;;;;;;;;6006264;23;20019;-85
2023/01/05 12:35:50;;;;;;;2.42;0.50;;;;;;;;;;6052559;23;20015;-84
2023/01/05 12:38:36;;;;;;;2.28;0.55;;;;;;;;;;6031401;23;20042;-84
2023/01/05 12:41:55;;;;;;;3.42;0.45;;;;;;;;;;6028256;23;20022;-84
2023/01/05 12:44:23;;;;;;;2.90;0.63;;;;;;;;;;5984574;23;20333;-84
2023/01/05 12:47:10;;;;;;;2.67;0.60;;;;;;;;;;6054074;23;20098;-86
2023/01/05 12:49:50;;;;;;;2.95;0.43;;;;;;;;;;6006764;23;20019;-86
2023/01/05 12:52:33;;;;;;;1.30;0.38;;;;;;;;;;5982819;23;20441;-86
2023/01/05 12:55:04;;;;;;;1.38;0.40;;;;;;;;;;6030233;23;20027;-86
2023/01/05 12:57:36;;;;;;;4.38;0.85;;;;;;;;;;6005151;23;20019;-85
2023/01/05 13:00:13;;;;;;;2.78;0.57;;;;;;;;;;5983909;23;20404;-86
2023/01/05 13:02:48;;;;;;;1.25;0.40;;;;;;;;;;5982372;23;20749;-85
2023/01/05 13:05:22;;;;;;;1.45;0.40;;;;;;;;;;5982303;23;20031;-86
2023/01/05 13:07:54;;;;;;;2.75;0.30;;;;;;;;;;6006992;23;20054;-86
2023/01/05 13:10:29;;;;;;;2.50;0.52;;;;;;;;;;6028325;23;20052;-84
2023/01/05 13:12:57;;;;;;;1.58;0.40;;;;;;;;;;5983892;23;20355;-86
2023/01/05 13:15:27;;;;;;;3.95;0.50;;;;;;;;;;5982675;23;20019;-85
2023/01/05 13:17:55;;;;;;;2.33;0.50;;;;;;;;;;5984040;23;20023;-85
2023/01/05 13:20:27;;;;;;;2.97;0.40;;;;;;;;;;6030560;23;20011;-83
2023/01/05 13:22:58;;;;;;;2.90;0.50;;;;;;;;;;5983857;23;20412;-86
2023/01/05 13:25:27;;;;;;;2.38;0.55;;;;;;;;;;6029843;23;20340;-86
2023/01/05 13:27:53;;;;;;;2.28;0.68;;;;;;;;;;5983582;23;20363;-87
2023/01/05 13:30:25;;;;;;;3.45;0.60;;;;;;;;;;5983007;23;20019;-86
2023/01/05 13:32:56;;;;;;;3.47;0.60;;;;;;;;;;6030480;23;20334;-85
2023/01/05 13:35:33;;;;;;;4.28;0.60;;;;;;;;;;6005950;23;20020;-86
2023/01/05 13:38:04;;;;;;;;;;;;;;;;;;6016663;23;20023;-85
2023/01/05 13:40:30;;;;;;;3.58;0.77;;;;;;;;;;6005859;23;19914;-87
2023/01/05 13:43:07;;;;;;;2.75;0.68;;;;;;;;;;6007044;23;20019;-86
2023/01/05 13:46:10;;;;;;;3.17;0.60;;;;;;;;;;6029388;23;20015;-85
2023/01/05 13:49:02;;;;;;;1.63;0.45;;;;;;;;;;6006311;23;20424;-88
2023/01/05 13:51:30;;;;;;;3.08;0.80;;;;;;;;;;5982585;23;20019;-87
2023/01/05 13:53:57;;;;;;;1.85;0.40;;;;;;;;;;6007177;23;20023;-87
2023/01/05 13:56:25;;;;;;;2.67;0.50;;;;;;;;;;6029138;23;20015;-87
2023/01/05 13:58:50;;;;;;;4.53;0.60;;;;;;;;;;6030761;23;20030;-83
2023/01/05 14:01:19;;;;;;;1.55;0.47;;;;;;;;;;6030433;23;20015;-88
2023/01/05 14:03:53;;;;;;;2.35;0.75;;;;;;;;;;5983327;23;20019;-88
2023/01/05 14:06:30;;;;;;;4.88;0.70;;;;;;;;;;6006276;23;20054;-87
2023/01/05 14:08:57;;;;;;;4.60;0.68;;;;;;;;;;6030676;23;20030;-86
2023/01/05 14:11:25;;;;;;;1.27;0.55;;;;;;;;;;5982953;23;20443;-87
2023/01/05 14:13:52;;;;;;;;;;;;;;;;;;5983629;23;20026;-82
2023/01/05 14:16:33;;;;;;;2.65;0.70;;;;;;;;;;5983627;23;20054;-85
2023/01/05 14:19:13;;;;;;;2.55;0.57;;;;;;;;;;6006462;23;20055;-85
2023/01/05 14:21:48;;;;;;;3.53;0.60;;;;;;;;;;6005471;23;20020;-84
2023/01/05 14:24:36;;;;;;;3.70;0.60;;;;;;;;;;6005679;23;20370;-86
2023/01/05 14:27:04;;;;;;;2.88;0.70;;;;;;;;;;6029467;23;20019;-87
2023/01/05 14:29:47;;;;;;;2.15;0.50;;;;;;;;;;6006645;23;20341;-84
2023/01/05 14:32:18;;;;;;;2.17;0.52;;;;;;;;;;6005104;23;20019;-86
2023/01/05 14:34:55;;;;;;;0.85;0.40;;;;;;;;;;6007202;23;20031;-87
2023/01/05 14:37:24;;;;;;;2.95;0.80;;;;;;;;;;6005116;23;20348;-87
2023/01/05 14:39:51;;;;;;;3.67;0.65;;;;;;;;;;6030436;23;20028;-87
2023/01/05 14:42:27;;;;;;;2.53;0.52;;;;;;;;;;5982661;23;20038;-86
2023/01/05 14:45:05;;;;;;;0.90;0.40;;;;;;;;;;6031026;23;20103;-87
2023/01/05 14:47:50;;;;;;;0.98;0.30;;;;;;;;;;6025798;23;20019;-86
2023/01/05 14:50:36;;;;;;;1.20;0.30;;;;;;;;;;6005129;23;21287;-88
2023/01/05 14:53:10;;;;;;;4.07;0.80;;;;;;;;;;6029866;23;20473;-86
2023/01/05 14:55:39;;;;;;;3.13;0.35;;;;;;;;;;6005314;23;20019;-84
2023/01/05 14:58:10;;;;;;;3.58;0.60;;;;;;;;;;6007305;23;20050;-83
2023/01/05 15:00:37;;;;;;;3.42;0.40;;;;;;;;;;6004219;23;20042;-85
2023/01/05 15:03:19;;;;;;;1.38;0.50;;;;;;;;;;5983143;23;20062;-85
2023/01/05 15:06:05;;;;;;;1.88;0.50;;;;;;;;;;5983198;23;20456;-86
2023/01/05 15:08:46;;;;;;;1.35;0.50;;;;;;;;;;6016160;23;20015;-85
2023/01/05 15:11:33;;;;;;;5.05;0.85;;;;;;;;;;6052716;23;20110;-86
2023/01/05 15:14:35;;;;;;;4.32;0.40;;;;;;;;;;6006150;23;20460;-86
2023/01/05 15:17:41;;;;;;;2.45;0.60;;;;;;;;;;5983518;23;20396;-87
2023/01/05 15:20:09;;;;;;;1.67;0.50;;;;;;;;;;6005273;23;20352;-84
2023/01/05 15:23:14;;;;;;;2.50;0.80;;;;;;;;;;6030969;23;20320;-85
2023/01/05 15:25:42;;;;;;;3.47;0.70;;;;;;;;;;6025029;23;20054;-87
2023/01/05 15:28:32;;;;;;;3.05;0.60;;;;;;;;;;6030959;23;20558;-87
2023/01/05 15:31:03;;;;;;;3.33;0.60;;;;;;;;;;6027529;23;20440;-85
2023/01/05 15:34:00;;;;;;;1.00;0.50;;;;;;;;;;6006475;23;20016;-84
2023/01/05 15:36:34;;;;;;;2.25;0.63;;;;;;;;;;6007929;23;20061;-84
2023/01/05 15:38:59;;;;;;;3.05;0.63;;;;;;;;;;5982138;23;20020;-84